TimePDT,TemperatureF,Dew PointF,Humidity,Sea Level PressureIn,VisibilityMPH,Wind Direction,Wind SpeedMPH,Gust SpeedMPH,PrecipitationIn,Events,Conditions,WindDirDegrees,DateUTC
12:56 AM,57.9,53.1,84,30.08,10.0,NNE,4.6,-,N/A,,Partly Cloudy,20,2013-03-30 07:56:00
1:56 AM,57.9,53.1,84,30.08,10.0,Calm,Calm,-,N/A,,Clear,0,2013-03-30 08:56:00
2:56 AM,57.9,52.0,81,30.07,10.0,WNW,3.5,-,N/A,,Partly Cloudy,290,2013-03-30 09:56:00
3:56 AM,55.9,52.0,87,30.06,10.0,NNW,4.6,-,N/A,,Clear,330,2013-03-30 10:56:00
4:12 AM,55.4,51.8,88,30.05,10.0,North,3.5,-,N/A,,Scattered Clouds,350,2013-03-30 11:12:00
4:21 AM,55.4,51.8,88,30.05,10.0,North,3.5,-,N/A,,Mostly Cloudy,10,2013-03-30 11:21:00
4:56 AM,55.9,53.1,90,30.05,10.0,NNW,3.5,-,N/A,,Scattered Clouds,330,2013-03-30 11:56:00
5:09 AM,55.4,53.6,94,30.04,10.0,Calm,Calm,-,N/A,,Mostly Cloudy,0,2013-03-30 12:09:00
5:56 AM,55.9,53.1,90,30.05,10.0,Calm,Calm,-,N/A,,Overcast,0,2013-03-30 12:56:00
6:45 AM,55.4,53.6,94,30.05,10.0,Calm,Calm,-,N/A,,Scattered Clouds,0,2013-03-30 13:45:00
6:56 AM,55.9,53.1,90,30.06,10.0,Calm,Calm,-,N/A,,Partly Cloudy,0,2013-03-30 13:56:00
7:10 AM,57.2,53.6,88,30.06,10.0,Calm,Calm,-,N/A,,Mostly Cloudy,0,2013-03-30 14:10:00
7:56 AM,57.0,53.1,87,30.08,10.0,Calm,Calm,-,N/A,,Overcast,0,2013-03-30 14:56:00
8:13 AM,57.2,53.6,88,30.07,8.0,North,4.6,-,N/A,,Overcast,350,2013-03-30 15:13:00
8:56 AM,57.9,53.1,84,30.09,9.0,North,8.1,-,N/A,,Overcast,350,2013-03-30 15:56:00
9:12 AM,57.2,53.6,88,30.08,9.0,NNW,4.6,-,N/A,,Overcast,340,2013-03-30 16:12:00
9:25 AM,57.2,53.6,88,30.08,8.0,North,6.9,-,N/A,,Overcast,360,2013-03-30 16:25:00
9:38 AM,57.2,53.6,88,30.09,10.0,North,5.8,-,N/A,,Overcast,350,2013-03-30 16:38:00
9:56 AM,57.9,53.1,84,30.09,10.0,North,6.9,-,N/A,,Overcast,360,2013-03-30 16:56:00
10:16 AM,59.0,53.6,82,30.08,10.0,North,4.6,-,N/A,,Overcast,10,2013-03-30 17:16:00
10:22 AM,60.8,53.6,77,30.08,10.0,NNE,5.8,-,N/A,,Overcast,20,2013-03-30 17:22:00
10:29 AM,60.8,53.6,77,30.08,10.0,NNW,4.6,-,N/A,,Mostly Cloudy,340,2013-03-30 17:29:00
10:56 AM,59.0,54.0,83,30.09,10.0,NNW,3.5,-,N/A,,Overcast,330,2013-03-30 17:56:00
11:10 AM,60.8,53.6,77,30.08,10.0,NNW,4.6,-,N/A,,Overcast,340,2013-03-30 18:10:00
11:25 AM,62.6,53.6,72,30.08,10.0,North,4.6,-,N/A,,Mostly Cloudy,350,2013-03-30 18:25:00
11:56 AM,64.0,53.1,67,30.08,10.0,Calm,Calm,-,N/A,,Clear,0,2013-03-30 18:56:00
12:56 PM,64.9,54.0,68,30.07,10.0,North,10.4,-,N/A,,Scattered Clouds,350,2013-03-30 19:56:00
1:56 PM,66.9,53.1,61,30.05,10.0,North,6.9,-,N/A,,Clear,350,2013-03-30 20:56:00
2:56 PM,69.1,53.1,57,30.03,10.0,NNW,9.2,-,N/A,,Clear,340,2013-03-30 21:56:00
3:56 PM,66.0,52.0,60,30.02,10.0,North,12.7,-,N/A,,Clear,350,2013-03-30 22:56:00
4:56 PM,64.9,54.0,68,30.01,10.0,NNW,4.6,-,N/A,,Scattered Clouds,330,2013-03-30 23:56:00
5:56 PM,66.0,53.1,63,29.99,10.0,North,6.9,-,0.00,Rain,Light Rain,350,2013-03-31 00:56:00
6:56 PM,63.0,54.0,72,30.01,10.0,ENE,3.5,-,0.01,,Overcast,60,2013-03-31 01:56:00
7:56 PM,63.0,50.0,63,30.02,10.0,Calm,Calm,-,N/A,,Partly Cloudy,0,2013-03-31 02:56:00
8:56 PM,62.1,51.1,67,30.03,10.0,SE,3.5,-,N/A,,Overcast,130,2013-03-31 03:56:00
9:56 PM,62.1,51.1,67,30.03,10.0,Calm,Calm,-,N/A,,Overcast,0,2013-03-31 04:56:00
10:56 PM,62.1,52.0,70,30.04,10.0,Variable,4.6,-,0.00,Rain,Light Rain,0,2013-03-31 05:56:00
11:56 PM,60.1,55.0,83,30.05,10.0,Calm,Calm,-,0.00,Rain,Light Rain,0,2013-03-31 06:56:00